sensor_id;sensor_type;location;lat;lon;timestamp;temperature;humidity
80495;DHT22;69819;48.798;11.770;2024-03-08T00:00:23;4.80;49.10
80495;DHT22;69819;48.798;11.770;2024-03-08T00:02:49;4.70;48.90
80495;DHT22;69819;48.798;11.770;2024-03-08T00:05:18;4.70;49.00
80495;DHT22;69819;48.798;11.770;2024-03-08T00:07:43;4.70;49.00
80495;DHT22;69819;48.798;11.770;2024-03-08T00:10:11;4.70;49.00
80495;DHT22;69819;48.798;11.770;2024-03-08T00:12:41;4.70;49.20
80495;DHT22;69819;48.798;11.770;2024-03-08T00:15:13;4.70;49.20
80495;DHT22;69819;48.798;11.770;2024-03-08T00:17:43;4.60;49.10
80495;DHT22;69819;48.798;11.770;2024-03-08T00:20:10;4.60;49.00
80495;DHT22;69819;48.798;11.770;2024-03-08T00:22:37;4.60;49.10
80495;DHT22;69819;48.798;11.770;2024-03-08T00:25:04;4.60;49.80
80495;DHT22;69819;48.798;11.770;2024-03-08T00:27:31;4.60;49.20
80495;DHT22;69819;48.798;11.770;2024-03-08T00:29:57;4.60;49.30
80495;DHT22;69819;48.798;11.770;2024-03-08T00:32:23;4.60;49.30
80495;DHT22;69819;48.798;11.770;2024-03-08T00:34:53;4.60;49.40
80495;DHT22;69819;48.798;11.770;2024-03-08T00:37:20;4.60;49.40
80495;DHT22;69819;48.798;11.770;2024-03-08T00:39:49;4.60;49.30
80495;DHT22;69819;48.798;11.770;2024-03-08T00:42:16;4.60;49.30
80495;DHT22;69819;48.798;11.770;2024-03-08T00:44:43;4.60;49.30
80495;DHT22;69819;48.798;11.770;2024-03-08T00:47:09;4.60;49.30
80495;DHT22;69819;48.798;11.770;2024-03-08T00:49:35;4.60;49.50
80495;DHT22;69819;48.798;11.770;2024-03-08T00:52:05;4.60;49.40
80495;DHT22;69819;48.798;11.770;2024-03-08T00:54:34;4.60;49.30
80495;DHT22;69819;48.798;11.770;2024-03-08T00:57:04;4.60;49.30
80495;DHT22;69819;48.798;11.770;2024-03-08T00:59:30;4.60;49.40
80495;DHT22;69819;48.798;11.770;2024-03-08T01:02:01;4.60;49.40
80495;DHT22;69819;48.798;11.770;2024-03-08T01:04:27;4.50;49.50
80495;DHT22;69819;48.798;11.770;2024-03-08T01:06:57;4.50;49.40
80495;DHT22;69819;48.798;11.770;2024-03-08T01:09:24;4.50;49.90
80495;DHT22;69819;48.798;11.770;2024-03-08T01:11:52;4.50;49.40
80495;DHT22;69819;48.798;11.770;2024-03-08T01:14:24;4.40;49.40
80495;DHT22;69819;48.798;11.770;2024-03-08T01:16:54;4.40;49.60
80495;DHT22;69819;48.798;11.770;2024-03-08T01:19:20;4.40;49.40
80495;DHT22;69819;48.798;11.770;2024-03-08T01:21:46;4.40;49.50
80495;DHT22;69819;48.798;11.770;2024-03-08T01:24:12;4.40;49.60
80495;DHT22;69819;48.798;11.770;2024-03-08T01:26:38;4.40;49.60
80495;DHT22;69819;48.798;11.770;2024-03-08T01:29:04;4.30;49.60
80495;DHT22;69819;48.798;11.770;2024-03-08T01:31:30;4.30;49.60
80495;DHT22;69819;48.798;11.770;2024-03-08T01:33:57;4.30;49.60
80495;DHT22;69819;48.798;11.770;2024-03-08T01:36:23;4.30;50.20
80495;DHT22;69819;48.798;11.770;2024-03-08T01:38:50;4.30;49.60
80495;DHT22;69819;48.798;11.770;2024-03-08T01:41:16;4.30;49.70
80495;DHT22;69819;48.798;11.770;2024-03-08T01:43:43;4.30;49.70
80495;DHT22;69819;48.798;11.770;2024-03-08T01:46:11;4.30;49.80
80495;DHT22;69819;48.798;11.770;2024-03-08T01:48:40;4.20;49.80
80495;DHT22;69819;48.798;11.770;2024-03-08T01:51:07;4.20;49.80
80495;DHT22;69819;48.798;11.770;2024-03-08T01:53:34;4.20;49.80
80495;DHT22;69819;48.798;11.770;2024-03-08T01:56:01;4.20;49.80
80495;DHT22;69819;48.798;11.770;2024-03-08T01:58:29;4.10;49.80
80495;DHT22;69819;48.798;11.770;2024-03-08T02:00:56;4.10;49.80
80495;DHT22;69819;48.798;11.770;2024-03-08T02:03:25;4.10;49.90
80495;DHT22;69819;48.798;11.770;2024-03-08T02:05:51;4.00;49.70
80495;DHT22;69819;48.798;11.770;2024-03-08T02:08:18;4.00;49.70
80495;DHT22;69819;48.798;11.770;2024-03-08T02:10:48;4.00;49.90
80495;DHT22;69819;48.798;11.770;2024-03-08T02:13:15;4.00;50.00
80495;DHT22;69819;48.798;11.770;2024-03-08T02:16:00;3.90;50.00
80495;DHT22;69819;48.798;11.770;2024-03-08T02:18:26;4.00;50.50
80495;DHT22;69819;48.798;11.770;2024-03-08T02:20:54;3.90;50.50
80495;DHT22;69819;48.798;11.770;2024-03-08T02:23:20;3.90;49.70
80495;DHT22;69819;48.798;11.770;2024-03-08T02:25:47;3.90;49.80
80495;DHT22;69819;48.798;11.770;2024-03-08T02:28:13;3.90;50.00
80495;DHT22;69819;48.798;11.770;2024-03-08T02:30:40;3.90;50.10
80495;DHT22;69819;48.798;11.770;2024-03-08T02:33:06;3.80;50.10
80495;DHT22;69819;48.798;11.770;2024-03-08T02:35:35;3.80;50.10
80495;DHT22;69819;48.798;11.770;2024-03-08T02:38:02;3.90;50.10
80495;DHT22;69819;48.798;11.770;2024-03-08T02:40:29;3.90;50.20
80495;DHT22;69819;48.798;11.770;2024-03-08T02:42:55;3.90;50.20
80495;DHT22;69819;48.798;11.770;2024-03-08T02:45:21;3.80;50.00
80495;DHT22;69819;48.798;11.770;2024-03-08T02:47:47;3.90;50.20
80495;DHT22;69819;48.798;11.770;2024-03-08T02:50:15;3.90;50.10
80495;DHT22;69819;48.798;11.770;2024-03-08T02:52:42;3.90;50.00
80495;DHT22;69819;48.798;11.770;2024-03-08T02:55:09;3.90;50.10
80495;DHT22;69819;48.798;11.770;2024-03-08T02:57:36;3.90;50.10
80495;DHT22;69819;48.798;11.770;2024-03-08T03:00:02;3.90;50.20
80495;DHT22;69819;48.798;11.770;2024-03-08T03:02:34;4.00;50.20
80495;DHT22;69819;48.798;11.770;2024-03-08T03:05:00;4.00;50.20
80495;DHT22;69819;48.798;11.770;2024-03-08T03:07:30;4.00;50.00
80495;DHT22;69819;48.798;11.770;2024-03-08T03:09:59;4.00;50.10
80495;DHT22;69819;48.798;11.770;2024-03-08T03:12:29;4.00;50.10
80495;DHT22;69819;48.798;11.770;2024-03-08T03:14:57;4.00;50.20
80495;DHT22;69819;48.798;11.770;2024-03-08T03:17:26;4.10;50.20
80495;DHT22;69819;48.798;11.770;2024-03-08T03:19:52;4.10;50.20
80495;DHT22;69819;48.798;11.770;2024-03-08T03:22:19;4.10;50.10
80495;DHT22;69819;48.798;11.770;2024-03-08T03:24:45;4.10;50.20
80495;DHT22;69819;48.798;11.770;2024-03-08T03:27:17;4.10;50.20
80495;DHT22;69819;48.798;11.770;2024-03-08T03:29:43;4.00;50.10
80495;DHT22;69819;48.798;11.770;2024-03-08T03:32:13;4.00;50.30
80495;DHT22;69819;48.798;11.770;2024-03-08T03:34:39;4.00;50.30
80495;DHT22;69819;48.798;11.770;2024-03-08T03:37:06;4.10;50.50
80495;DHT22;69819;48.798;11.770;2024-03-08T03:39:34;3.90;50.30
80495;DHT22;69819;48.798;11.770;2024-03-08T03:42:02;3.90;50.20
80495;DHT22;69819;48.798;11.770;2024-03-08T03:44:28;3.90;50.30
80495;DHT22;69819;48.798;11.770;2024-03-08T03:46:54;3.80;50.10
80495;DHT22;69819;48.798;11.770;2024-03-08T03:49:20;3.80;50.10
80495;DHT22;69819;48.798;11.770;2024-03-08T03:51:46;3.80;50.00
80495;DHT22;69819;48.798;11.770;2024-03-08T03:54:12;3.80;50.10
80495;DHT22;69819;48.798;11.770;2024-03-08T03:56:38;3.80;50.30
80495;DHT22;69819;48.798;11.770;2024-03-08T03:59:05;3.80;50.30
80495;DHT22;69819;48.798;11.770;2024-03-08T04:01:32;3.80;50.30
80495;DHT22;69819;48.798;11.770;2024-03-08T04:03:59;3.80;50.40
80495;DHT22;69819;48.798;11.770;2024-03-08T04:06:25;3.80;50.40
80495;DHT22;69819;48.798;11.770;2024-03-08T04:08:51;3.80;50.30
80495;DHT22;69819;48.798;11.770;2024-03-08T04:11:16;3.80;50.30
80495;DHT22;69819;48.798;11.770;2024-03-08T04:13:43;3.90;50.40
80495;DHT22;69819;48.798;11.770;2024-03-08T04:16:09;3.90;50.40
80495;DHT22;69819;48.798;11.770;2024-03-08T04:18:37;3.90;50.50
80495;DHT22;69819;48.798;11.770;2024-03-08T04:21:06;3.90;50.50
80495;DHT22;69819;48.798;11.770;2024-03-08T04:23:33;3.90;50.50
80495;DHT22;69819;48.798;11.770;2024-03-08T04:26:04;3.90;50.50
80495;DHT22;69819;48.798;11.770;2024-03-08T04:28:32;3.90;50.50
80495;DHT22;69819;48.798;11.770;2024-03-08T04:30:58;3.90;50.50
80495;DHT22;69819;48.798;11.770;2024-03-08T04:33:26;3.90;50.40
80495;DHT22;69819;48.798;11.770;2024-03-08T04:35:52;3.90;50.50
80495;DHT22;69819;48.798;11.770;2024-03-08T04:38:18;3.90;50.40
80495;DHT22;69819;48.798;11.770;2024-03-08T04:40:44;4.00;50.70
80495;DHT22;69819;48.798;11.770;2024-03-08T04:43:10;4.00;50.90
80495;DHT22;69819;48.798;11.770;2024-03-08T04:45:36;4.00;50.90
80495;DHT22;69819;48.798;11.770;2024-03-08T04:48:03;4.10;51.10
80495;DHT22;69819;48.798;11.770;2024-03-08T04:50:28;4.10;51.10
80495;DHT22;69819;48.798;11.770;2024-03-08T04:52:55;4.10;50.90
80495;DHT22;69819;48.798;11.770;2024-03-08T04:55:21;4.10;50.80
80495;DHT22;69819;48.798;11.770;2024-03-08T04:57:47;4.10;50.50
80495;DHT22;69819;48.798;11.770;2024-03-08T05:00:14;4.10;50.60
80495;DHT22;69819;48.798;11.770;2024-03-08T05:02:41;4.20;50.70
80495;DHT22;69819;48.798;11.770;2024-03-08T05:05:07;4.10;50.40
80495;DHT22;69819;48.798;11.770;2024-03-08T05:07:38;4.10;50.50
80495;DHT22;69819;48.798;11.770;2024-03-08T05:10:06;4.10;50.50
80495;DHT22;69819;48.798;11.770;2024-03-08T05:12:33;4.10;50.60
80495;DHT22;69819;48.798;11.770;2024-03-08T05:14:59;4.10;50.60
80495;DHT22;69819;48.798;11.770;2024-03-08T05:17:25;4.00;50.50
80495;DHT22;69819;48.798;11.770;2024-03-08T05:19:51;4.00;50.50
80495;DHT22;69819;48.798;11.770;2024-03-08T05:22:17;4.00;50.50
80495;DHT22;69819;48.798;11.770;2024-03-08T05:24:44;3.90;50.40
80495;DHT22;69819;48.798;11.770;2024-03-08T05:27:10;3.90;50.40
80495;DHT22;69819;48.798;11.770;2024-03-08T05:29:36;3.80;50.30
80495;DHT22;69819;48.798;11.770;2024-03-08T05:32:03;3.80;50.40
80495;DHT22;69819;48.798;11.770;2024-03-08T05:34:29;3.70;50.30
80495;DHT22;69819;48.798;11.770;2024-03-08T05:36:55;3.70;50.30
80495;DHT22;69819;48.798;11.770;2024-03-08T05:39:21;3.70;50.50
80495;DHT22;69819;48.798;11.770;2024-03-08T05:41:47;3.60;50.70
80495;DHT22;69819;48.798;11.770;2024-03-08T05:44:13;3.60;50.70
80495;DHT22;69819;48.798;11.770;2024-03-08T05:46:39;3.60;50.80
80495;DHT22;69819;48.798;11.770;2024-03-08T05:49:06;3.60;50.80
80495;DHT22;69819;48.798;11.770;2024-03-08T05:51:33;3.60;51.00
80495;DHT22;69819;48.798;11.770;2024-03-08T05:54:03;3.60;51.10
80495;DHT22;69819;48.798;11.770;2024-03-08T05:56:33;3.60;51.00
80495;DHT22;69819;48.798;11.770;2024-03-08T05:58:59;3.70;51.10
80495;DHT22;69819;48.798;11.770;2024-03-08T06:01:26;3.70;51.20
80495;DHT22;69819;48.798;11.770;2024-03-08T06:03:53;3.70;51.20
80495;DHT22;69819;48.798;11.770;2024-03-08T06:06:21;3.80;51.50
80495;DHT22;69819;48.798;11.770;2024-03-08T06:08:50;3.80;51.50
80495;DHT22;69819;48.798;11.770;2024-03-08T06:11:17;3.90;51.50
80495;DHT22;69819;48.798;11.770;2024-03-08T06:13:45;4.00;51.70
80495;DHT22;69819;48.798;11.770;2024-03-08T06:16:11;4.20;52.00
80495;DHT22;69819;48.798;11.770;2024-03-08T06:18:38;4.20;51.90
80495;DHT22;69819;48.798;11.770;2024-03-08T06:21:05;4.30;51.90
80495;DHT22;69819;48.798;11.770;2024-03-08T06:23:35;4.40;51.90
80495;DHT22;69819;48.798;11.770;2024-03-08T06:26:04;4.50;52.20
80495;DHT22;69819;48.798;11.770;2024-03-08T06:28:30;4.70;52.70
80495;DHT22;69819;48.798;11.770;2024-03-08T06:30:58;4.90;53.20
80495;DHT22;69819;48.798;11.770;2024-03-08T06:33:25;5.20;53.50
80495;DHT22;69819;48.798;11.770;2024-03-08T06:35:54;5.50;53.70
80495;DHT22;69819;48.798;11.770;2024-03-08T06:38:26;5.90;53.90
80495;DHT22;69819;48.798;11.770;2024-03-08T06:40:52;6.30;53.90
80495;DHT22;69819;48.798;11.770;2024-03-08T06:43:19;6.70;53.60
80495;DHT22;69819;48.798;11.770;2024-03-08T06:45:45;7.10;53.40
80495;DHT22;69819;48.798;11.770;2024-03-08T06:48:17;7.50;53.60
80495;DHT22;69819;48.798;11.770;2024-03-08T06:50:46;7.70;52.70
80495;DHT22;69819;48.798;11.770;2024-03-08T06:53:13;8.00;52.20
80495;DHT22;69819;48.798;11.770;2024-03-08T06:55:40;8.20;51.80
80495;DHT22;69819;48.798;11.770;2024-03-08T06:58:06;8.30;51.50
80495;DHT22;69819;48.798;11.770;2024-03-08T07:00:36;8.50;51.20
80495;DHT22;69819;48.798;11.770;2024-03-08T07:03:03;8.70;51.10
80495;DHT22;69819;48.798;11.770;2024-03-08T07:05:30;8.70;50.70
80495;DHT22;69819;48.798;11.770;2024-03-08T07:07:56;8.70;50.40
80495;DHT22;69819;48.798;11.770;2024-03-08T07:10:22;8.70;50.40
80495;DHT22;69819;48.798;11.770;2024-03-08T07:12:51;8.80;50.50
80495;DHT22;69819;48.798;11.770;2024-03-08T07:15:18;8.80;50.60
80495;DHT22;69819;48.798;11.770;2024-03-08T07:17:48;8.90;50.70
80495;DHT22;69819;48.798;11.770;2024-03-08T07:20:14;9.00;51.40
80495;DHT22;69819;48.798;11.770;2024-03-08T07:22:41;9.00;51.00
80495;DHT22;69819;48.798;11.770;2024-03-08T07:25:08;9.20;51.30
80495;DHT22;69819;48.798;11.770;2024-03-08T07:27:43;9.40;51.40
80495;DHT22;69819;48.798;11.770;2024-03-08T07:30:09;9.70;51.50
80495;DHT22;69819;48.798;11.770;2024-03-08T07:32:35;9.90;51.40
80495;DHT22;69819;48.798;11.770;2024-03-08T07:35:01;10.10;50.20
80495;DHT22;69819;48.798;11.770;2024-03-08T07:37:27;10.30;50.30
80495;DHT22;69819;48.798;11.770;2024-03-08T07:39:53;10.50;50.40
80495;DHT22;69819;48.798;11.770;2024-03-08T07:42:19;10.70;49.40
80495;DHT22;69819;48.798;11.770;2024-03-08T07:44:44;10.70;49.00
80495;DHT22;69819;48.798;11.770;2024-03-08T07:47:13;10.80;48.70
80495;DHT22;69819;48.798;11.770;2024-03-08T07:49:39;10.70;48.00
80495;DHT22;69819;48.798;11.770;2024-03-08T07:52:05;10.70;48.00
80495;DHT22;69819;48.798;11.770;2024-03-08T07:54:33;10.60;47.90
80495;DHT22;69819;48.798;11.770;2024-03-08T07:57:00;10.50;47.90
80495;DHT22;69819;48.798;11.770;2024-03-08T07:59:28;10.40;48.40
80495;DHT22;69819;48.798;11.770;2024-03-08T08:01:55;10.30;47.90
80495;DHT22;69819;48.798;11.770;2024-03-08T08:04:21;10.30;48.70
80495;DHT22;69819;48.798;11.770;2024-03-08T08:06:50;10.10;48.00
80495;DHT22;69819;48.798;11.770;2024-03-08T08:09:16;10.10;48.40
80495;DHT22;69819;48.798;11.770;2024-03-08T08:11:56;10.10;48.50
80495;DHT22;69819;48.798;11.770;2024-03-08T08:14:22;10.20;48.70
80495;DHT22;69819;48.798;11.770;2024-03-08T08:16:48;10.20;48.70
80495;DHT22;69819;48.798;11.770;2024-03-08T08:19:15;10.30;48.80
80495;DHT22;69819;48.798;11.770;2024-03-08T08:21:41;10.30;49.40
80495;DHT22;69819;48.798;11.770;2024-03-08T08:24:07;10.40;48.70
80495;DHT22;69819;48.798;11.770;2024-03-08T08:26:33;10.50;49.20
80495;DHT22;69819;48.798;11.770;2024-03-08T08:28:59;10.50;48.50
80495;DHT22;69819;48.798;11.770;2024-03-08T08:31:25;10.60;48.60
80495;DHT22;69819;48.798;11.770;2024-03-08T08:33:52;10.70;48.40
80495;DHT22;69819;48.798;11.770;2024-03-08T08:36:26;10.70;48.30
80495;DHT22;69819;48.798;11.770;2024-03-08T08:38:55;10.80;48.20
80495;DHT22;69819;48.798;11.770;2024-03-08T08:41:23;10.80;48.20
80495;DHT22;69819;48.798;11.770;2024-03-08T08:43:49;10.90;48.80
80495;DHT22;69819;48.798;11.770;2024-03-08T08:46:18;11.00;48.20
80495;DHT22;69819;48.798;11.770;2024-03-08T08:48:44;11.00;47.90
80495;DHT22;69819;48.798;11.770;2024-03-08T08:51:12;11.10;47.80
80495;DHT22;69819;48.798;11.770;2024-03-08T08:53:39;11.20;47.80
80495;DHT22;69819;48.798;11.770;2024-03-08T08:56:08;11.20;47.70
80495;DHT22;69819;48.798;11.770;2024-03-08T08:58:41;11.20;47.50
80495;DHT22;69819;48.798;11.770;2024-03-08T09:01:10;11.40;47.70
80495;DHT22;69819;48.798;11.770;2024-03-08T09:03:36;11.40;47.40
80495;DHT22;69819;48.798;11.770;2024-03-08T09:06:06;11.50;48.10
80495;DHT22;69819;48.798;11.770;2024-03-08T09:08:38;11.80;49.00
80495;DHT22;69819;48.798;11.770;2024-03-08T09:11:07;12.20;49.80
80495;DHT22;69819;48.798;11.770;2024-03-08T09:13:33;12.70;50.40
80495;DHT22;69819;48.798;11.770;2024-03-08T09:16:02;13.10;50.80
80495;DHT22;69819;48.798;11.770;2024-03-08T09:18:31;13.90;51.00
80495;DHT22;69819;48.798;11.770;2024-03-08T09:20:58;14.50;50.00
80495;DHT22;69819;48.798;11.770;2024-03-08T09:23:25;15.10;50.00
80495;DHT22;69819;48.798;11.770;2024-03-08T09:25:58;15.60;49.50
80495;DHT22;69819;48.798;11.770;2024-03-08T09:28:24;16.10;49.00
80495;DHT22;69819;48.798;11.770;2024-03-08T09:30:50;16.50;48.60
80495;DHT22;69819;48.798;11.770;2024-03-08T09:33:16;16.90;47.60
80495;DHT22;69819;48.798;11.770;2024-03-08T09:35:45;17.10;46.80
80495;DHT22;69819;48.798;11.770;2024-03-08T09:38:12;17.30;46.60
80495;DHT22;69819;48.798;11.770;2024-03-08T09:40:41;17.50;46.10
80495;DHT22;69819;48.798;11.770;2024-03-08T09:43:07;17.60;45.90
80495;DHT22;69819;48.798;11.770;2024-03-08T09:45:36;17.60;45.20
80495;DHT22;69819;48.798;11.770;2024-03-08T09:48:15;17.70;44.10
80495;DHT22;69819;48.798;11.770;2024-03-08T09:50:44;17.60;43.40
80495;DHT22;69819;48.798;11.770;2024-03-08T09:53:13;17.50;43.30
80495;DHT22;69819;48.798;11.770;2024-03-08T09:55:39;17.40;43.00
80495;DHT22;69819;48.798;11.770;2024-03-08T09:58:08;17.20;43.00
80495;DHT22;69819;48.798;11.770;2024-03-08T10:01:02;17.10;42.80
80495;DHT22;69819;48.798;11.770;2024-03-08T10:03:30;17.00;42.90
80495;DHT22;69819;48.798;11.770;2024-03-08T10:05:57;16.80;42.60
80495;DHT22;69819;48.798;11.770;2024-03-08T10:08:29;16.70;42.60
80495;DHT22;69819;48.798;11.770;2024-03-08T10:10:56;16.50;42.50
80495;DHT22;69819;48.798;11.770;2024-03-08T10:13:25;16.40;42.40
80495;DHT22;69819;48.798;11.770;2024-03-08T10:15:57;16.30;42.30
80495;DHT22;69819;48.798;11.770;2024-03-08T10:18:22;16.20;42.60
80495;DHT22;69819;48.798;11.770;2024-03-08T10:21:02;16.10;42.40
80495;DHT22;69819;48.798;11.770;2024-03-08T10:23:30;16.00;42.30
80495;DHT22;69819;48.798;11.770;2024-03-08T10:25:56;15.90;42.30
80495;DHT22;69819;48.798;11.770;2024-03-08T10:28:23;15.80;42.30
80495;DHT22;69819;48.798;11.770;2024-03-08T10:30:50;15.60;41.80
80495;DHT22;69819;48.798;11.770;2024-03-08T10:33:16;15.50;42.10
80495;DHT22;69819;48.798;11.770;2024-03-08T10:35:42;15.30;41.90
80495;DHT22;69819;48.798;11.770;2024-03-08T10:38:11;15.10;41.50
80495;DHT22;69819;48.798;11.770;2024-03-08T10:40:40;15.00;41.30
80495;DHT22;69819;48.798;11.770;2024-03-08T10:43:14;14.80;41.50
80495;DHT22;69819;48.798;11.770;2024-03-08T10:45:50;14.60;41.60
80495;DHT22;69819;48.798;11.770;2024-03-08T10:48:31;14.30;41.90
80495;DHT22;69819;48.798;11.770;2024-03-08T10:51:04;14.10;41.90
80495;DHT22;69819;48.798;11.770;2024-03-08T10:53:30;13.90;41.60
80495;DHT22;69819;48.798;11.770;2024-03-08T10:55:57;13.80;42.10
80495;DHT22;69819;48.798;11.770;2024-03-08T10:58:25;13.60;42.30
80495;DHT22;69819;48.798;11.770;2024-03-08T11:00:55;13.50;42.30
80495;DHT22;69819;48.798;11.770;2024-03-08T11:09:32;13.20;42.50
80495;DHT22;69819;48.798;11.770;2024-03-08T11:12:21;13.10;41.90
80495;DHT22;69819;48.798;11.770;2024-03-08T11:14:51;13.10;42.60
80495;DHT22;69819;48.798;11.770;2024-03-08T11:18:10;13.10;42.60
80495;DHT22;69819;48.798;11.770;2024-03-08T11:22:48;13.00;42.80
80495;DHT22;69819;48.798;11.770;2024-03-08T11:25:40;13.00;42.60
80495;DHT22;69819;48.798;11.770;2024-03-08T11:33:36;13.00;42.60
80495;DHT22;69819;48.798;11.770;2024-03-08T11:36:13;13.00;42.60
80495;DHT22;69819;48.798;11.770;2024-03-08T11:38:48;13.10;42.40
80495;DHT22;69819;48.798;11.770;2024-03-08T11:41:19;13.10;42.50
80495;DHT22;69819;48.798;11.770;2024-03-08T11:43:46;13.10;42.70
80495;DHT22;69819;48.798;11.770;2024-03-08T11:46:13;13.10;42.60
80495;DHT22;69819;48.798;11.770;2024-03-08T11:48:41;13.10;42.50
80495;DHT22;69819;48.798;11.770;2024-03-08T11:51:12;13.10;42.70
80495;DHT22;69819;48.798;11.770;2024-03-08T11:53:39;13.20;42.50
80495;DHT22;69819;48.798;11.770;2024-03-08T11:56:10;13.20;42.70
80495;DHT22;69819;48.798;11.770;2024-03-08T11:58:37;13.20;42.80
80495;DHT22;69819;48.798;11.770;2024-03-08T12:01:08;13.30;42.60
80495;DHT22;69819;48.798;11.770;2024-03-08T12:03:40;13.30;42.10
80495;DHT22;69819;48.798;11.770;2024-03-08T12:06:10;13.40;42.50
80495;DHT22;69819;48.798;11.770;2024-03-08T12:08:36;13.40;42.30
80495;DHT22;69819;48.798;11.770;2024-03-08T12:11:04;13.50;42.50
80495;DHT22;69819;48.798;11.770;2024-03-08T12:13:32;13.50;42.60
80495;DHT22;69819;48.798;11.770;2024-03-08T12:16:02;13.50;42.60
80495;DHT22;69819;48.798;11.770;2024-03-08T12:18:37;13.60;42.40
80495;DHT22;69819;48.798;11.770;2024-03-08T12:21:11;13.60;42.90
80495;DHT22;69819;48.798;11.770;2024-03-08T12:23:40;13.60;42.40
80495;DHT22;69819;48.798;11.770;2024-03-08T12:26:24;13.70;42.50
80495;DHT22;69819;48.798;11.770;2024-03-08T12:28:51;13.70;42.40
80495;DHT22;69819;48.798;11.770;2024-03-08T12:31:18;13.80;42.80
80495;DHT22;69819;48.798;11.770;2024-03-08T12:33:51;13.80;42.50
80495;DHT22;69819;48.798;11.770;2024-03-08T12:36:19;13.80;42.40
80495;DHT22;69819;48.798;11.770;2024-03-08T12:38:49;13.90;42.70
80495;DHT22;69819;48.798;11.770;2024-03-08T12:41:15;13.90;42.70
80495;DHT22;69819;48.798;11.770;2024-03-08T12:43:43;13.90;42.60
80495;DHT22;69819;48.798;11.770;2024-03-08T12:46:14;13.90;42.70
80495;DHT22;69819;48.798;11.770;2024-03-08T12:48:41;14.00;42.70
80495;DHT22;69819;48.798;11.770;2024-03-08T12:51:18;14.00;42.70
80495;DHT22;69819;48.798;11.770;2024-03-08T12:53:46;14.10;42.80
80495;DHT22;69819;48.798;11.770;2024-03-08T12:56:13;14.10;42.50
80495;DHT22;69819;48.798;11.770;2024-03-08T12:58:41;14.10;42.40
80495;DHT22;69819;48.798;11.770;2024-03-08T13:01:08;14.10;42.10
80495;DHT22;69819;48.798;11.770;2024-03-08T13:03:34;14.10;41.70
80495;DHT22;69819;48.798;11.770;2024-03-08T13:06:06;14.10;42.20
80495;DHT22;69819;48.798;11.770;2024-03-08T13:08:36;14.20;42.30
80495;DHT22;69819;48.798;11.770;2024-03-08T13:11:07;14.20;42.40
80495;DHT22;69819;48.798;11.770;2024-03-08T13:13:34;14.20;42.10
80495;DHT22;69819;48.798;11.770;2024-03-08T13:16:06;14.30;42.60
80495;DHT22;69819;48.798;11.770;2024-03-08T13:18:35;14.30;42.00
80495;DHT22;69819;48.798;11.770;2024-03-08T13:21:01;14.30;42.00
80495;DHT22;69819;48.798;11.770;2024-03-08T13:23:31;14.30;42.10
80495;DHT22;69819;48.798;11.770;2024-03-08T13:25:57;14.30;42.00
80495;DHT22;69819;48.798;11.770;2024-03-08T13:28:23;14.30;42.20
80495;DHT22;69819;48.798;11.770;2024-03-08T13:30:55;14.30;42.10
80495;DHT22;69819;48.798;11.770;2024-03-08T13:33:23;14.30;41.80
80495;DHT22;69819;48.798;11.770;2024-03-08T13:35:49;14.30;41.90
80495;DHT22;69819;48.798;11.770;2024-03-08T13:38:16;14.30;41.50
80495;DHT22;69819;48.798;11.770;2024-03-08T13:40:45;14.40;41.50
80495;DHT22;69819;48.798;11.770;2024-03-08T13:43:14;14.40;41.40
80495;DHT22;69819;48.798;11.770;2024-03-08T13:45:40;14.40;41.20
80495;DHT22;69819;48.798;11.770;2024-03-08T13:48:06;14.40;41.30
80495;DHT22;69819;48.798;11.770;2024-03-08T13:50:32;14.40;41.40
80495;DHT22;69819;48.798;11.770;2024-03-08T13:52:58;14.40;41.10
80495;DHT22;69819;48.798;11.770;2024-03-08T13:55:24;14.40;40.80
80495;DHT22;69819;48.798;11.770;2024-03-08T13:57:52;14.40;40.80
80495;DHT22;69819;48.798;11.770;2024-03-08T14:00:19;14.40;40.80
80495;DHT22;69819;48.798;11.770;2024-03-08T14:02:50;14.40;40.80
80495;DHT22;69819;48.798;11.770;2024-03-08T14:05:16;14.40;40.80
80495;DHT22;69819;48.798;11.770;2024-03-08T14:07:43;14.40;41.20
80495;DHT22;69819;48.798;11.770;2024-03-08T14:10:11;14.40;41.30
80495;DHT22;69819;48.798;11.770;2024-03-08T14:12:38;14.50;41.20
80495;DHT22;69819;48.798;11.770;2024-03-08T14:15:05;14.50;41.00
80495;DHT22;69819;48.798;11.770;2024-03-08T14:17:32;14.50;41.10
80495;DHT22;69819;48.798;11.770;2024-03-08T14:19:58;14.50;41.90
80495;DHT22;69819;48.798;11.770;2024-03-08T14:22:24;14.60;41.00
80495;DHT22;69819;48.798;11.770;2024-03-08T14:24:50;14.60;41.00
80495;DHT22;69819;48.798;11.770;2024-03-08T14:27:17;14.50;40.90
80495;DHT22;69819;48.798;11.770;2024-03-08T14:29:44;14.50;40.90
80495;DHT22;69819;48.798;11.770;2024-03-08T14:32:10;14.60;41.00
80495;DHT22;69819;48.798;11.770;2024-03-08T14:34:36;14.60;41.00
80495;DHT22;69819;48.798;11.770;2024-03-08T14:37:02;14.60;41.00
80495;DHT22;69819;48.798;11.770;2024-03-08T14:39:31;14.60;41.20
80495;DHT22;69819;48.798;11.770;2024-03-08T14:41:59;14.60;41.00
80495;DHT22;69819;48.798;11.770;2024-03-08T14:44:25;14.60;40.70
80495;DHT22;69819;48.798;11.770;2024-03-08T14:46:52;14.60;40.90
80495;DHT22;69819;48.798;11.770;2024-03-08T14:49:18;14.60;40.50
80495;DHT22;69819;48.798;11.770;2024-03-08T14:51:46;14.60;40.80
80495;DHT22;69819;48.798;11.770;2024-03-08T14:54:12;14.60;40.90
80495;DHT22;69819;48.798;11.770;2024-03-08T14:56:38;14.50;40.30
80495;DHT22;69819;48.798;11.770;2024-03-08T14:59:07;14.60;40.40
80495;DHT22;69819;48.798;11.770;2024-03-08T15:01:35;14.60;40.10
80495;DHT22;69819;48.798;11.770;2024-03-08T15:04:02;14.60;40.00
80495;DHT22;69819;48.798;11.770;2024-03-08T15:06:40;14.50;40.20
80495;DHT22;69819;48.798;11.770;2024-03-08T15:09:08;14.50;39.60
80495;DHT22;69819;48.798;11.770;2024-03-08T15:11:46;14.50;40.10
80495;DHT22;69819;48.798;11.770;2024-03-08T15:14:14;14.50;39.60
80495;DHT22;69819;48.798;11.770;2024-03-08T15:16:42;14.40;39.80
80495;DHT22;69819;48.798;11.770;2024-03-08T15:19:08;14.40;39.70
80495;DHT22;69819;48.798;11.770;2024-03-08T15:21:37;14.40;39.20
80495;DHT22;69819;48.798;11.770;2024-03-08T15:24:03;14.40;39.50
80495;DHT22;69819;48.798;11.770;2024-03-08T15:26:29;14.40;39.20
80495;DHT22;69819;48.798;11.770;2024-03-08T15:28:57;14.30;39.40
80495;DHT22;69819;48.798;11.770;2024-03-08T15:31:23;14.30;39.70
80495;DHT22;69819;48.798;11.770;2024-03-08T15:33:52;14.20;39.50
80495;DHT22;69819;48.798;11.770;2024-03-08T15:36:26;14.20;39.10
80495;DHT22;69819;48.798;11.770;2024-03-08T15:38:56;14.20;39.00
80495;DHT22;69819;48.798;11.770;2024-03-08T15:41:22;14.20;39.20